createdAt,value
2018-04-30T00:00:59.822Z,75.05
2018-04-30T00:02:10.008Z,74.85
2018-04-30T00:03:20.086Z,74.85
2018-04-30T00:04:30.153Z,74.76
2018-04-30T00:05:40.220Z,75.14
2018-04-30T00:06:50.042Z,75.14
2018-04-30T00:08:00.181Z,74.57
2018-04-30T00:09:10.014Z,74.62
2018-04-30T00:10:20.127Z,74.95
2018-04-30T00:11:29.944Z,74.62
2018-04-30T00:12:40.035Z,74.72
2018-04-30T00:13:50.122Z,74.91
2018-04-30T00:15:00.202Z,75.01
2018-04-30T00:16:10.292Z,74.52
2018-04-30T00:17:20.367Z,75.01
2018-04-30T00:18:29.919Z,74.82
2018-04-30T00:19:40.084Z,74.52
2018-04-30T00:20:50.168Z,74.52
2018-04-30T00:22:00.231Z,74.52
2018-04-30T00:23:10.043Z,74.78
2018-04-30T00:24:19.852Z,74.78
2018-04-30T00:25:29.944Z,74.78
2018-04-30T00:26:40.024Z,74.68
2018-04-30T00:27:49.850Z,74.78
2018-04-30T00:28:59.678Z,74.49
2018-04-30T00:30:09.764Z,74.78
2018-04-30T00:31:19.920Z,74.49
2018-04-30T00:32:29.751Z,74.78
2018-04-30T00:33:39.953Z,74.45
2018-04-30T00:34:50.091Z,74.45
2018-04-30T00:35:59.982Z,74.55
2018-04-30T00:37:09.531Z,74.65
2018-04-30T00:38:19.353Z,74.65
2018-04-30T00:39:29.169Z,74.26
2018-04-30T00:40:39.321Z,74.65
2018-04-30T00:41:49.397Z,74.26
2018-04-30T00:42:59.480Z,74.26
2018-04-30T00:44:09.560Z,74.07
2018-04-30T00:45:19.102Z,74.36
2018-04-30T00:46:28.941Z,74.41
2018-04-30T00:47:38.743Z,74.13
2018-04-30T00:48:48.820Z,74.51
2018-04-30T00:49:58.921Z,74.22
2018-04-30T00:51:08.745Z,74.41
2018-04-30T00:52:18.571Z,73.65
2018-04-30T00:53:28.640Z,73.94
2018-04-30T00:54:38.472Z,73.84
2018-04-30T00:55:48.585Z,73.74
2018-04-30T00:56:58.665Z,73.46
2018-04-30T00:58:08.743Z,73.55
2018-04-30T00:59:18.849Z,73.94
2018-04-30T01:00:28.938Z,73.65
2018-04-30T01:01:39.014Z,74.03
2018-04-30T01:02:49.118Z,73.84
2018-04-30T01:03:59.212Z,73.94
2018-04-30T01:05:09.306Z,74.03
2018-04-30T01:06:19.134Z,73.65
2018-04-30T01:07:29.212Z,73.65
2018-04-30T01:08:39.299Z,73.55
2018-04-30T01:09:49.376Z,73.65
2018-04-30T01:10:59.464Z,73.61
2018-04-30T01:12:08.764Z,73.9
2018-04-30T01:13:18.596Z,73.99
2018-04-30T01:14:28.687Z,73.71
2018-04-30T01:15:38.758Z,73.61
2018-04-30T01:16:48.596Z,73.55
2018-04-30T01:17:58.681Z,73.61
2018-04-30T01:19:08.519Z,73.8
2018-04-30T01:20:18.621Z,73.8
2018-04-30T01:21:28.448Z,73.61
2018-04-30T01:22:38.530Z,73.61
2018-04-30T01:23:48.661Z,73.51
2018-04-30T01:24:58.781Z,73.61
2018-04-30T01:26:08.878Z,73.51
2018-04-30T01:27:18.688Z,73.71
2018-04-30T01:28:28.791Z,73.71
2018-04-30T01:29:38.698Z,74.19
2018-04-30T01:30:48.525Z,74.38
2018-04-30T01:31:58.614Z,73.9
2018-04-30T01:33:08.711Z,74.38
2018-04-30T01:34:18.794Z,74.29
2018-04-30T01:35:28.876Z,74.09
2018-04-30T01:36:38.709Z,74.29
2018-04-30T01:37:48.780Z,74.29
2018-04-30T01:38:58.879Z,74.09
2018-04-30T01:40:08.945Z,74.25
2018-04-30T01:41:18.758Z,74.29
2018-04-30T01:42:28.853Z,74.25
2018-04-30T01:43:38.935Z,73.67
2018-04-30T01:44:48.491Z,73.67
2018-04-30T01:45:58.559Z,73.67
2018-04-30T01:47:08.424Z,73.57
2018-04-30T01:48:18.532Z,73.57
2018-04-30T01:49:28.615Z,73.57
2018-04-30T01:50:38.449Z,73.86
2018-04-30T01:51:48.528Z,73.57
2018-04-30T01:52:58.620Z,73.47
2018-04-30T01:54:08.443Z,73.57
2018-04-30T01:55:18.526Z,73.67
2018-04-30T01:56:28.609Z,73.86
2018-04-30T01:57:38.700Z,73.96
2018-04-30T01:58:48.807Z,73.86
2018-04-30T01:59:58.644Z,73.57
2018-04-30T02:01:08.722Z,73.77
2018-04-30T02:02:18.293Z,73.57
2018-04-30T02:03:28.370Z,73.57
2018-04-30T02:04:38.246Z,73.57
2018-04-30T02:05:48.333Z,73.67
2018-04-30T02:06:58.136Z,73.67
2018-04-30T02:08:07.693Z,73.63
2018-04-30T02:09:17.787Z,73.57
2018-04-30T02:10:27.927Z,73.77
2018-04-30T02:11:38.024Z,73.57
2018-04-30T02:12:48.105Z,73.73
2018-04-30T02:13:58.181Z,73.67
2018-04-30T02:15:08.255Z,73.83
2018-04-30T02:16:17.804Z,73.92
2018-04-30T02:17:27.890Z,74.02
2018-04-30T02:18:37.991Z,73.92
2018-04-30T02:19:48.062Z,73.92
2018-04-30T02:20:57.943Z,73.63
2018-04-30T02:22:07.496Z,73.83
2018-04-30T02:23:17.577Z,73.83
2018-04-30T02:24:27.672Z,73.63
2018-04-30T02:25:37.478Z,73.63
2018-04-30T02:26:47.304Z,73.83
2018-04-30T02:27:57.387Z,73.92
2018-04-30T02:29:07.467Z,73.96
2018-04-30T02:30:17.589Z,73.86
2018-04-30T02:31:27.677Z,73.77
2018-04-30T02:32:37.497Z,73.86
2018-04-30T02:33:47.364Z,73.67
2018-04-30T02:34:57.462Z,73.77
2018-04-30T02:36:07.563Z,73.96
2018-04-30T02:37:17.666Z,73.86
2018-04-30T02:38:27.768Z,73.86
2018-04-30T02:39:37.878Z,73.67
2018-04-30T02:40:47.704Z,73.57
2018-04-30T02:41:57.784Z,73.57
2018-04-30T02:43:07.880Z,73.67
2018-04-30T02:44:17.961Z,73.77
2018-04-30T02:45:28.098Z,74.25
2018-04-30T02:46:38.213Z,74.15
2018-04-30T02:47:48.289Z,74.15
2018-04-30T02:48:58.398Z,74.15
2018-04-30T02:50:08.511Z,74.44
2018-04-30T02:51:18.648Z,74.34
2018-04-30T02:52:28.712Z,74.44
2018-04-30T02:53:38.789Z,74.15
2018-04-30T02:54:48.920Z,74.05
2018-04-30T02:55:59.035Z,74.15
2018-04-30T02:57:09.160Z,74.15
2018-04-30T02:58:19.239Z,74.15
2018-04-30T02:59:29.325Z,74.05
2018-04-30T03:00:39.411Z,74.25
2018-04-30T03:01:49.480Z,74.05
2018-04-30T03:02:59.565Z,74.02
2018-04-30T03:34:29.931Z,70.57
2018-04-30T03:35:39.216Z,71.25
2018-04-30T03:36:49.031Z,72.11
2018-04-30T03:37:58.584Z,72.59
2018-04-30T03:39:08.390Z,73.41
2018-04-30T03:40:18.483Z,72.88
2018-04-30T03:41:28.553Z,73.45
2018-04-30T03:42:38.641Z,73.45
2018-04-30T03:43:48.713Z,74.12
2018-04-30T03:44:58.794Z,73.77
2018-04-30T03:46:08.935Z,73.77
2018-04-30T03:47:18.753Z,74.64
2018-04-30T03:48:28.830Z,74.1
2018-04-30T03:49:39.033Z,74.1
2018-04-30T03:50:49.330Z,74.01
2018-04-30T03:51:59.450Z,74.19
2018-04-30T03:53:09.605Z,74.04
2018-04-30T03:54:19.697Z,74.13
2018-04-30T03:55:29.766Z,73.56
2018-04-30T03:56:39.856Z,73.5
2018-04-30T03:57:49.739Z,73.6
2018-04-30T03:58:59.551Z,73.98
2018-04-30T04:00:09.660Z,73.6
2018-04-30T04:01:19.791Z,73.83
2018-04-30T04:02:29.968Z,74.02
2018-04-30T04:03:40.104Z,73.83
2018-04-30T04:04:50.222Z,73.35
2018-04-30T04:06:00.044Z,73.54
2018-04-30T04:07:10.127Z,73.44
2018-04-30T04:08:20.294Z,73.96
2018-04-30T04:09:29.925Z,73.57
2018-04-30T04:10:40.024Z,73.09
2018-04-30T04:11:50.132Z,73.47
2018-04-30T04:13:00.231Z,73.67
2018-04-30T04:14:10.421Z,73.67
2018-04-30T04:15:20.518Z,73.9
2018-04-30T04:16:30.625Z,73.61
2018-04-30T04:17:40.742Z,72.94
2018-04-30T04:18:50.837Z,73.03
2018-04-30T04:20:00.920Z,73.13
2018-04-30T04:21:11.037Z,73.22
2018-04-30T04:22:20.598Z,73.16
2018-04-30T04:23:30.678Z,72.97
2018-04-30T04:24:40.297Z,72.39
2018-04-30T04:25:50.420Z,72.24
2018-04-30T04:27:00.298Z,71.85
2018-04-30T04:28:10.114Z,71.7
2018-04-30T04:29:20.228Z,72.27
2018-04-30T04:30:30.325Z,72.37
2018-04-30T04:31:40.418Z,72.95
2018-04-30T04:32:50.514Z,72.85
2018-04-30T04:34:00.609Z,72.47
2018-04-30T04:35:10.925Z,72.95
2018-04-30T04:36:21.028Z,72.69
2018-04-30T04:37:31.145Z,72.5
2018-04-30T04:38:41.261Z,72.15
2018-04-30T04:39:51.346Z,72.06
2018-04-30T04:41:01.452Z,71.61
2018-04-30T04:42:11.587Z,72.19
2018-04-30T04:43:21.566Z,71.9
2018-04-30T04:44:31.663Z,72.22
2018-04-30T04:45:41.540Z,71.94
2018-04-30T04:46:51.622Z,70.62
2018-04-30T04:48:01.182Z,69.53
2018-04-30T04:49:11.248Z,69.31
2018-04-30T04:50:21.143Z,68.08
2018-04-30T04:51:31.326Z,67.72
2018-04-30T04:52:41.392Z,68.28
2018-04-30T04:53:51.282Z,67.79
2018-04-30T04:55:01.387Z,68.31
2018-04-30T04:56:11.546Z,68.02
2018-04-30T04:57:21.665Z,68.83
2018-04-30T04:58:31.756Z,69.32
2018-04-30T04:59:41.573Z,69.22
2018-04-30T05:00:51.681Z,68.57
2018-04-30T05:02:01.873Z,68.41
2018-04-30T05:03:11.972Z,68.54
2018-04-30T05:04:22.095Z,68.02
2018-04-30T05:05:32.212Z,68.51
2018-04-30T05:06:42.326Z,68.45
2018-04-30T05:07:52.421Z,68.55
2018-04-30T05:09:02.533Z,68.84
2018-04-30T05:10:12.609Z,68.09
2018-04-30T05:11:22.440Z,68.58
2018-04-30T05:12:31.986Z,68.32
2018-04-30T05:13:42.139Z,68.32
2018-04-30T05:14:51.987Z,68.32
2018-04-30T05:16:01.819Z,68.9
2018-04-30T05:17:11.914Z,68.97
2018-04-30T05:18:22.000Z,69.17
2018-04-30T05:19:31.882Z,69.36
2018-04-30T05:20:41.971Z,70.53
2018-04-30T05:21:52.161Z,70.65
2018-04-30T05:23:02.251Z,71.23
2018-04-30T05:24:12.341Z,71.4
2018-04-30T05:25:22.427Z,72.63
2018-04-30T05:26:32.256Z,72.98
2018-04-30T05:27:42.366Z,73.33
2018-04-30T05:28:52.460Z,73.94
2018-04-30T05:30:02.579Z,73.65
2018-04-30T05:31:12.391Z,73.52
2018-04-30T05:32:22.504Z,73.71
2018-04-30T05:33:32.599Z,74
2018-04-30T05:34:42.733Z,73.96
2018-04-30T05:35:52.871Z,73.96
2018-04-30T05:37:02.703Z,73.58
2018-04-30T05:38:12.792Z,73.19
2018-04-30T05:39:22.930Z,73.19
2018-04-30T05:40:32.802Z,72.71
2018-04-30T05:41:42.891Z,72.8
2018-04-30T05:42:52.979Z,72.41
2018-04-30T05:44:02.806Z,71.96
2018-04-30T05:45:12.909Z,71.48
2018-04-30T05:46:23.066Z,71.32
2018-04-30T05:47:33.152Z,71.12
2018-04-30T05:48:44.044Z,70.87
2018-04-30T05:49:55.347Z,70.87
2018-04-30T05:51:06.879Z,70.67
2018-04-30T05:52:17.559Z,71.64
2018-04-30T05:53:27.988Z,72.19
2018-04-30T05:54:38.930Z,73.03
2018-04-30T05:55:49.362Z,73.32
2018-04-30T05:56:59.771Z,73.19
2018-04-30T05:58:09.946Z,73.09
2018-04-30T05:59:20.119Z,73.09
2018-04-30T06:00:30.420Z,72.71
2018-04-30T06:01:40.817Z,72.89
2018-04-30T06:02:50.651Z,72.8
2018-04-30T06:04:00.741Z,72.89
2018-04-30T06:05:10.916Z,71.96
2018-04-30T06:06:21.158Z,72.35
2018-04-30T06:07:31.235Z,72.25
2018-04-30T06:08:41.390Z,72.06
2018-04-30T06:09:51.567Z,72.39
2018-04-30T06:11:01.682Z,72.19
2018-04-30T06:12:11.847Z,72.49
2018-04-30T06:13:22.228Z,72.58
2018-04-30T06:14:32.385Z,72.49
2018-04-30T06:15:42.480Z,72.49
2018-04-30T06:16:52.058Z,72.39
2018-04-30T06:18:01.896Z,72.19
2018-04-30T06:19:11.735Z,72
2018-04-30T06:20:21.813Z,72.09
2018-04-30T06:21:31.939Z,72.39
2018-04-30T06:22:42.022Z,72.19
2018-04-30T06:23:52.174Z,72.09
2018-04-30T06:25:02.292Z,72.09
2018-04-30T06:26:12.386Z,72.19
2018-04-30T06:27:22.486Z,71.55
2018-04-30T06:28:32.590Z,71.26
2018-04-30T06:29:42.734Z,71.36
2018-04-30T06:30:52.827Z,71.36
2018-04-30T06:32:02.424Z,71.29
2018-04-30T06:33:12.509Z,71.48
2018-04-30T06:34:22.601Z,71.2
2018-04-30T06:35:32.933Z,71.39
2018-04-30T06:36:43.056Z,71.88
2018-04-30T06:37:53.152Z,71.06
2018-04-30T06:39:03.263Z,71.45
2018-04-30T06:40:13.369Z,72.13
2018-04-30T06:41:23.207Z,71.94
2018-04-30T06:42:33.298Z,71.94
2018-04-30T06:43:43.412Z,72.13
2018-04-30T06:44:53.245Z,72.09
2018-04-30T06:46:03.359Z,72.33
2018-04-30T06:47:13.463Z,72.03
2018-04-30T06:48:23.289Z,71.74
2018-04-30T06:49:33.734Z,72.13
2018-04-30T06:50:43.832Z,71.94
2018-04-30T06:51:53.953Z,72.13
2018-04-30T06:53:04.031Z,72.23
2018-04-30T06:54:14.219Z,72.42
2018-04-30T06:55:24.354Z,72.52
2018-04-30T06:56:34.438Z,72.23
2018-04-30T06:57:44.618Z,72.03
2018-04-30T06:58:54.720Z,72.13
2018-04-30T07:00:04.807Z,72.07
2018-04-30T07:01:14.657Z,72.27
2018-04-30T07:02:24.739Z,71.78
2018-04-30T07:03:34.851Z,71.2
2018-04-30T07:04:44.700Z,71.42
2018-04-30T07:05:54.784Z,71.42
2018-04-30T07:07:04.615Z,71.42
2018-04-30T07:08:14.698Z,71.33
2018-04-30T07:09:25.174Z,71.46
2018-04-30T07:10:36.060Z,71.85
2018-04-30T07:11:46.155Z,71.46
2018-04-30T07:12:56.328Z,71.36
2018-04-30T07:14:06.514Z,71.59
2018-04-30T07:15:16.601Z,71.3
2018-04-30T07:16:26.722Z,71.3
2018-04-30T07:17:36.820Z,71.04
2018-04-30T07:18:46.984Z,71.33
2018-04-30T07:19:57.087Z,71.08
2018-04-30T07:21:07.345Z,71.17
2018-04-30T07:22:17.484Z,71.17
2018-04-30T07:23:27.391Z,71.21
2018-04-30T07:24:36.990Z,71.41
2018-04-30T07:25:46.817Z,71.41
2018-04-30T07:26:56.919Z,71.44
2018-04-30T07:28:07.014Z,71.44
2018-04-30T07:29:16.864Z,71.25
2018-04-30T07:30:26.963Z,71.25
2018-04-30T07:31:37.075Z,71.37
2018-04-30T07:32:47.181Z,71.18
2018-04-30T07:33:57.007Z,71.18
2018-04-30T07:35:07.119Z,71.28
2018-04-30T07:36:16.967Z,71.22
2018-04-30T07:37:26.809Z,71.22
2018-04-30T07:38:36.939Z,71.22
2018-04-30T07:39:47.024Z,71.02
2018-04-30T07:40:56.879Z,71.22
2018-04-30T07:42:07.004Z,71.9
2018-04-30T07:43:17.131Z,71.8
2018-04-30T07:44:27.231Z,71.7
2018-04-30T07:45:37.360Z,71.51
2018-04-30T07:46:47.454Z,71.9
2018-04-30T07:47:57.338Z,72
2018-04-30T07:49:07.194Z,71.22
2018-04-30T07:50:17.494Z,71.06
2018-04-30T07:51:27.604Z,71.25
2018-04-30T07:52:37.704Z,71.58
2018-04-30T07:53:47.804Z,71.29
2018-04-30T07:54:57.628Z,71.19
2018-04-30T07:56:07.463Z,71.09
2018-04-30T07:57:17.689Z,71.03
2018-04-30T07:58:27.694Z,71.12
2018-04-30T07:59:37.844Z,71.22
2018-04-30T08:00:47.673Z,71.22
2018-04-30T08:01:57.527Z,71.32
2018-04-30T08:03:07.494Z,71.12
2018-04-30T08:04:17.809Z,71.12
2018-04-30T08:05:27.944Z,71.12
2018-04-30T08:06:38.060Z,70.83
2018-04-30T08:07:48.162Z,71.03
2018-04-30T08:08:57.987Z,70.48
2018-04-30T08:10:08.157Z,70.09
2018-04-30T08:11:17.852Z,70.48
2018-04-30T08:12:28.183Z,70.57
2018-04-30T08:13:38.044Z,70.7
2018-04-30T08:14:48.221Z,70.41
2018-04-30T08:15:58.519Z,70.7
2018-04-30T08:17:08.604Z,70.7
2018-04-30T08:18:18.673Z,70.61
2018-04-30T08:19:28.596Z,70.51
2018-04-30T08:20:38.693Z,70.41
2018-04-30T08:21:48.547Z,69.96
2018-04-30T08:22:58.840Z,70.06
2018-04-30T08:24:08.991Z,70.06
2018-04-30T08:25:18.864Z,69.96
2018-04-30T08:26:28.981Z,69.67
2018-04-30T08:27:39.104Z,70.29
2018-04-30T08:28:49.276Z,70.29
2018-04-30T08:29:59.382Z,69.99
2018-04-30T08:31:09.491Z,69.99
2018-04-30T08:32:19.288Z,69.79
2018-04-30T08:33:29.460Z,69.99
2018-04-30T08:34:39.593Z,70.29
2018-04-30T08:35:49.732Z,70.39
2018-04-30T08:36:59.898Z,69.83
2018-04-30T08:38:09.467Z,69.54
2018-04-30T08:39:19.571Z,69.83
2018-04-30T08:40:29.689Z,69.54
2018-04-30T08:41:39.566Z,69.64
2018-04-30T08:42:49.681Z,70.03
2018-04-30T08:43:59.781Z,69.83
2018-04-30T08:45:10.118Z,69.83
2018-04-30T08:46:19.979Z,69.93
2018-04-30T08:47:30.107Z,70.09
2018-04-30T08:48:40.195Z,70.09
2018-04-30T08:49:50.048Z,70.39
2018-04-30T08:51:00.404Z,70.09
2018-04-30T08:52:10.635Z,70.29
2018-04-30T08:53:20.946Z,70.22
2018-04-30T08:54:30.771Z,69.99
2018-04-30T08:55:40.946Z,70.19
2018-04-30T08:56:50.774Z,70.29
2018-04-30T08:58:00.855Z,69.79
2018-04-30T08:59:10.715Z,69.79
2018-04-30T09:00:20.943Z,69.5
2018-04-30T09:01:31.785Z,69.83
2018-04-30T09:02:41.936Z,69.54
2018-04-30T09:03:52.206Z,69.83
2018-04-30T09:05:02.403Z,69.73
2018-04-30T09:06:12.525Z,70.22
2018-04-30T09:07:22.623Z,70.12
2018-04-30T09:08:32.845Z,70.48
2018-04-30T09:09:42.944Z,70.78
2018-04-30T09:10:53.454Z,70.48
2018-04-30T09:12:03.574Z,70.97
2018-04-30T09:13:13.645Z,70.74
2018-04-30T09:14:23.478Z,70.29
2018-04-30T09:15:33.582Z,70.58
2018-04-30T09:16:43.712Z,71.07
2018-04-30T09:17:53.891Z,70.48
2018-04-30T09:19:04.002Z,70.48
2018-04-30T09:20:14.133Z,71.07
2018-04-30T09:21:24.218Z,70.71
2018-04-30T09:22:34.379Z,70.29
2018-04-30T09:23:44.924Z,70.97
2018-04-30T09:24:55.130Z,70.87
2018-04-30T09:26:05.447Z,71.13
2018-04-30T09:27:15.785Z,71.13
2018-04-30T09:28:26.088Z,71.52
2018-04-30T09:29:36.397Z,71.72
2018-04-30T09:30:46.709Z,71.72
2018-04-30T09:31:56.743Z,71.3
2018-04-30T09:33:07.039Z,71.39
2018-04-30T09:34:17.321Z,71.39
2018-04-30T09:35:27.421Z,71.69
2018-04-30T09:36:37.748Z,71.59
2018-04-30T09:37:48.093Z,71.49
2018-04-30T09:38:58.305Z,71.13
2018-04-30T09:40:08.413Z,70.94
2018-04-30T09:41:18.527Z,71.13
2018-04-30T09:42:28.387Z,71.42
2018-04-30T09:43:38.559Z,71.42
2018-04-30T09:44:48.658Z,71.33
2018-04-30T09:45:57.981Z,71.23
2018-04-30T09:47:07.564Z,71.33
2018-04-30T09:48:17.159Z,71.07
2018-04-30T09:49:26.982Z,70.39
2018-04-30T09:50:37.076Z,70.68
2018-04-30T09:51:47.195Z,70.39
2018-04-30T09:52:57.051Z,70.48
2018-04-30T09:54:07.139Z,70.42
2018-04-30T09:55:16.994Z,70.32
2018-04-30T09:56:27.217Z,70.9
2018-04-30T09:57:37.336Z,70.61
2018-04-30T09:58:47.930Z,70.61
2018-04-30T09:59:58.037Z,70.71
2018-04-30T10:01:07.905Z,70.9
2018-04-30T10:02:18.017Z,70.61
2018-04-30T10:03:27.859Z,70.51
2018-04-30T10:04:37.954Z,70.42
2018-04-30T10:05:47.777Z,71.3
2018-04-30T10:06:57.921Z,71.4
2018-04-30T10:08:08.040Z,71.56
2018-04-30T10:09:18.179Z,71.46
2018-04-30T10:10:28.281Z,71.72
2018-04-30T10:11:38.382Z,71.72
2018-04-30T10:12:48.483Z,71.56
2018-04-30T10:13:58.587Z,71.42
2018-04-30T10:15:08.669Z,71.33
2018-04-30T10:16:18.823Z,71.72
2018-04-30T10:17:28.660Z,71.62
2018-04-30T10:18:38.848Z,71.52
2018-04-30T10:19:48.965Z,71.23
2018-04-30T10:20:59.076Z,71.03
2018-04-30T10:22:09.190Z,71.13
2018-04-30T10:23:19.491Z,71.07
2018-04-30T10:24:29.849Z,70.48
2018-04-30T10:25:40.034Z,70.48
2018-04-30T10:26:50.143Z,70.42
2018-04-30T10:28:00.263Z,70.71
2018-04-30T10:29:10.500Z,70.81
2018-04-30T10:30:20.709Z,70.55
2018-04-30T10:31:30.866Z,71.14
2018-04-30T10:32:41.203Z,70.36
2018-04-30T10:33:51.591Z,70.48
2018-04-30T10:35:01.974Z,71.14
2018-04-30T10:36:13.467Z,71.08
2018-04-30T10:37:24.196Z,70.88
2018-04-30T10:38:34.967Z,71.08
2018-04-30T10:39:45.678Z,70.59
2018-04-30T10:40:56.327Z,70.39
2018-04-30T10:42:06.855Z,70.62
2018-04-30T10:43:17.154Z,70.62
2018-04-30T10:44:27.904Z,70.52
2018-04-30T10:45:38.421Z,70.91
2018-04-30T10:46:48.777Z,70.91
2018-04-30T10:47:58.635Z,70.62
2018-04-30T10:49:08.758Z,71.17
2018-04-30T10:50:18.879Z,71.27
2018-04-30T10:51:28.981Z,70.98
2018-04-30T10:52:39.346Z,71.27
2018-04-30T10:53:49.254Z,71.56
2018-04-30T10:54:58.837Z,70.39
2018-04-30T10:56:08.949Z,70.98
2018-04-30T10:57:18.805Z,70.91
2018-04-30T10:58:28.622Z,71.21
2018-04-30T10:59:38.716Z,71.01
2018-04-30T11:00:48.558Z,70.72
2018-04-30T11:01:58.669Z,70.42
2018-04-30T11:03:08.835Z,70.26
2018-04-30T11:04:18.406Z,69.96
2018-04-30T11:05:28.600Z,70.56
2018-04-30T11:06:38.718Z,70.75
2018-04-30T11:07:48.833Z,70.65
2018-04-30T11:08:58.951Z,70.65
2018-04-30T11:10:09.066Z,70.56
2018-04-30T11:11:19.176Z,70.56
2018-04-30T11:12:28.907Z,70.26
2018-04-30T11:13:39.579Z,70.56
2018-04-30T11:14:49.597Z,70.65
2018-04-30T11:15:59.550Z,70.65
2018-04-30T11:17:09.717Z,69.96
2018-04-30T11:18:19.863Z,70.26
2018-04-30T11:19:29.967Z,70.26
2018-04-30T11:20:40.107Z,69.9
2018-04-30T11:21:50.219Z,69.9
2018-04-30T11:23:00.379Z,70.39
2018-04-30T11:24:10.475Z,70.68
2018-04-30T11:25:20.579Z,71.14
2018-04-30T11:26:30.673Z,70.78
2018-04-30T11:27:40.614Z,70.98
2018-04-30T11:28:50.916Z,70.98
2018-04-30T11:30:01.027Z,70.49
2018-04-30T11:31:11.135Z,70.1
2018-04-30T11:32:20.966Z,70.33
2018-04-30T11:33:31.118Z,70.43
2018-04-30T11:34:41.303Z,70.56
2018-04-30T11:35:51.453Z,70.56
2018-04-30T11:37:01.632Z,70.36
2018-04-30T11:38:11.773Z,70.46
2018-04-30T11:39:21.761Z,70.82
2018-04-30T11:40:31.901Z,71.08
2018-04-30T11:41:42.073Z,71.14
2018-04-30T11:42:52.251Z,70.98
2018-04-30T11:44:02.136Z,70.59
2018-04-30T11:45:12.304Z,70.68
2018-04-30T11:46:22.830Z,71.28
2018-04-30T11:47:33.941Z,70.95
2018-04-30T11:48:44.970Z,70.65
2018-04-30T11:49:55.914Z,70.68
2018-04-30T11:51:05.812Z,69.9
2018-04-30T11:52:16.023Z,70.33
2018-04-30T11:53:26.209Z,70.62
2018-04-30T11:54:36.069Z,70.43
2018-04-30T11:55:46.333Z,70.13
2018-04-30T11:56:56.502Z,70.13
2018-04-30T11:58:06.651Z,70.33
2018-04-30T11:59:16.532Z,70.33
2018-04-30T12:00:26.434Z,70.33
2018-04-30T12:01:36.623Z,70.43
2018-04-30T12:02:46.846Z,70.23
2018-04-30T12:04:02.227Z,69.87
2018-04-30T12:05:12.981Z,70.07
2018-04-30T12:06:23.179Z,70.1
2018-04-30T12:07:33.338Z,70
2018-04-30T12:08:43.521Z,70.5
2018-04-30T12:09:53.691Z,70.4
2018-04-30T12:11:03.957Z,70.59
2018-04-30T12:12:14.964Z,70.2
2018-04-30T12:13:26.547Z,70.3
2018-04-30T12:14:37.846Z,70.26
2018-04-30T12:15:47.788Z,70.36
2018-04-30T12:16:57.719Z,69.97
2018-04-30T12:18:07.886Z,70.36
2018-04-30T12:19:18.059Z,70.86
2018-04-30T12:20:27.672Z,70.2
2018-04-30T12:21:37.674Z,70.66
2018-04-30T12:22:47.537Z,70.36
2018-04-30T12:23:57.695Z,70.76
2018-04-30T12:25:07.892Z,71.15
2018-04-30T12:26:18.134Z,70.95
2018-04-30T12:27:28.356Z,70.86
2018-04-30T12:28:38.232Z,70.82
2018-04-30T12:29:48.455Z,70.92
2018-04-30T12:30:58.911Z,70.92
2018-04-30T12:32:09.160Z,71.11
2018-04-30T12:33:19.374Z,71.37
2018-04-30T12:34:29.576Z,71.47
2018-04-30T12:35:39.731Z,71.04
2018-04-30T12:36:49.613Z,71.44
2018-04-30T12:37:59.488Z,71.44
2018-04-30T12:39:09.716Z,71.44
2018-04-30T12:40:20.435Z,71.53
2018-04-30T12:41:31.361Z,71.44
2018-04-30T12:42:42.697Z,71.44
2018-04-30T12:43:53.463Z,71.11
2018-04-30T12:45:03.717Z,71.34
2018-04-30T12:46:13.897Z,71.24
2018-04-30T12:47:23.776Z,71.31
2018-04-30T12:48:33.656Z,71.6
2018-04-30T12:49:44.109Z,71.41
2018-04-30T12:50:54.707Z,70.52
2018-04-30T12:52:05.029Z,70.56
2018-04-30T12:53:15.210Z,70.56
2018-04-30T12:54:25.454Z,70.65
2018-04-30T12:55:35.330Z,70.56
2018-04-30T12:56:45.543Z,70.46
2018-04-30T12:57:55.470Z,71.04
2018-04-30T12:59:05.626Z,71.5
2018-04-30T13:00:15.768Z,71.11
2018-04-30T13:01:25.948Z,71.11
2018-04-30T13:02:36.267Z,71.41
2018-04-30T13:03:46.541Z,71.21
2018-04-30T13:04:56.431Z,71.6
2018-04-30T13:06:06.630Z,71.41
2018-04-30T13:07:16.525Z,71.41
2018-04-30T13:08:26.756Z,71.41
2018-04-30T13:09:36.894Z,71.47
2018-04-30T13:10:47.020Z,71.66
2018-04-30T13:11:57.168Z,71.86
2018-04-30T13:13:07.375Z,71.86
2018-04-30T13:14:17.695Z,71.66
2018-04-30T13:15:28.980Z,71.43
2018-04-30T13:16:40.532Z,71.47
2018-04-30T13:17:50.666Z,71.27
2018-04-30T13:19:00.764Z,71.08
2018-04-30T13:20:10.844Z,70.88
2018-04-30T13:21:20.865Z,70.88
2018-04-30T13:22:30.956Z,70.39
2018-04-30T13:23:41.078Z,70.72
2018-04-30T13:24:51.186Z,70.72
2018-04-30T13:26:01.273Z,70.72
2018-04-30T13:27:11.382Z,70.68
2018-04-30T13:28:21.587Z,70.81
2018-04-30T13:29:31.773Z,70.72
2018-04-30T13:30:41.863Z,70.42
2018-04-30T13:31:51.978Z,71.41
2018-04-30T13:33:02.069Z,71.31
2018-04-30T13:34:12.168Z,71.41
2018-04-30T13:35:22.021Z,71.01
2018-04-30T13:36:32.121Z,71.41
2018-04-30T13:37:42.279Z,70.91
2018-04-30T13:38:52.393Z,71.01
2018-04-30T13:40:02.495Z,71.6
2018-04-30T13:41:12.351Z,71.11
2018-04-30T13:42:22.438Z,71.11
2018-04-30T13:43:32.348Z,71.41
2018-04-30T13:44:42.624Z,71.41
2018-04-30T13:45:52.763Z,71.5
2018-04-30T13:47:02.883Z,71.5
2018-04-30T13:48:13.001Z,71.41
2018-04-30T13:49:23.153Z,71.41
2018-04-30T13:50:33.012Z,71.27
2018-04-30T13:51:43.102Z,71.47
2018-04-30T13:52:53.187Z,71.31
2018-04-30T13:54:03.286Z,71.11
2018-04-30T13:55:13.413Z,71.5
2018-04-30T13:56:23.254Z,71.01
2018-04-30T13:57:33.340Z,70.81
2018-04-30T13:58:43.434Z,70.42
2018-04-30T13:59:53.550Z,70.42
2018-04-30T14:01:03.628Z,70.95
2018-04-30T14:02:13.765Z,71.34
2018-04-30T14:03:24.064Z,71.41
2018-04-30T14:04:34.177Z,71.31
2018-04-30T14:05:44.272Z,71.5
2018-04-30T14:06:54.591Z,71.41
2018-04-30T14:08:04.698Z,71.41
2018-04-30T14:09:14.556Z,71.41
2018-04-30T14:10:24.668Z,71.41
2018-04-30T14:11:34.519Z,71.5
2018-04-30T14:12:44.656Z,71.21
2018-04-30T14:13:54.760Z,71.31
2018-04-30T14:15:04.857Z,71.41
2018-04-30T14:16:14.722Z,71.21
2018-04-30T14:17:24.799Z,71.6
2018-04-30T14:18:34.934Z,71.7
2018-04-30T14:19:45.044Z,71.89
2018-04-30T14:20:55.138Z,71.86
2018-04-30T14:22:05.009Z,71.47
2018-04-30T14:23:14.857Z,71.41
2018-04-30T14:24:24.995Z,71.5
2018-04-30T14:25:34.824Z,71.5
2018-04-30T14:26:44.930Z,71.37
2018-04-30T14:27:54.761Z,71.66
2018-04-30T14:29:04.866Z,71.41
2018-04-30T14:30:14.975Z,71.41
2018-04-30T14:31:25.086Z,71.37
2018-04-30T14:32:34.702Z,71.17
2018-04-30T14:33:44.806Z,71.86
2018-04-30T14:34:54.899Z,71.86
2018-04-30T14:36:05.069Z,71.56
2018-04-30T14:37:15.175Z,71.66
2018-04-30T14:38:25.387Z,71.43
2018-04-30T14:39:35.688Z,71.33
2018-04-30T14:40:45.805Z,71.53
2018-04-30T14:41:55.864Z,71.33
2018-04-30T14:43:06.078Z,71.73
2018-04-30T14:44:16.026Z,71.53
2018-04-30T14:45:25.921Z,71.83
2018-04-30T14:46:36.082Z,71.62
2018-04-30T14:47:46.393Z,71.92
2018-04-30T14:48:56.519Z,72.08
2018-04-30T14:50:06.848Z,72.28
2018-04-30T14:51:16.760Z,71.89
2018-04-30T14:52:27.134Z,72.28
2018-04-30T14:53:37.346Z,71.89
2018-04-30T14:54:47.567Z,71.98
2018-04-30T14:55:57.451Z,71.79
2018-04-30T14:57:07.069Z,72.38
2018-04-30T14:58:17.191Z,71.98
2018-04-30T14:59:27.402Z,71.98
2018-04-30T15:00:37.528Z,71.95
2018-04-30T15:01:47.404Z,72.24
2018-04-30T15:02:57.548Z,71.95
2018-04-30T15:04:07.685Z,71.95
2018-04-30T15:05:17.889Z,72.05
2018-04-30T15:06:27.765Z,71.85
2018-04-30T15:07:37.651Z,71.95
2018-04-30T15:08:47.763Z,71.95
2018-04-30T15:09:57.882Z,71.95
2018-04-30T15:11:08.113Z,71.81
2018-04-30T15:12:18.112Z,72.31
2018-04-30T15:13:28.678Z,72.21
2018-04-30T15:14:38.853Z,72.02
2018-04-30T15:15:48.978Z,71.72
2018-04-30T15:16:59.365Z,71.88
2018-04-30T15:18:09.425Z,71.59
2018-04-30T15:19:19.539Z,71.88
2018-04-30T15:20:29.741Z,71.88
2018-04-30T15:21:39.840Z,71.88
2018-04-30T15:22:49.996Z,71.88
2018-04-30T15:24:00.129Z,71.88
2018-04-30T15:25:10.252Z,71.98
2018-04-30T15:26:20.113Z,71.78
2018-04-30T15:27:30.210Z,71.75
2018-04-30T15:28:40.365Z,71.75
2018-04-30T15:29:50.445Z,71.84
2018-04-30T15:31:00.545Z,71.94
2018-04-30T15:32:10.376Z,71.84
2018-04-30T15:33:20.484Z,71.84
2018-04-30T15:34:30.641Z,71.65
2018-04-30T15:35:40.819Z,71.75